createdAt,value
2022-09-22T00:01:55.311Z,16.00
2022-09-22T00:04:44.648Z,16.00
2022-09-22T00:07:33.570Z,16.00
2022-09-22T00:10:23.403Z,15.80
2022-09-22T00:13:12.249Z,15.90
2022-09-22T00:16:05.093Z,16.00
2022-09-22T00:18:54.646Z,16.10
2022-09-22T00:21:44.292Z,16.10
2022-09-22T00:24:35.180Z,16.10
2022-09-22T00:27:25.954Z,16.20
2022-09-22T00:30:16.550Z,16.20
2022-09-22T00:33:06.776Z,16.20
2022-09-22T00:35:59.837Z,16.20
2022-09-22T00:38:50.795Z,16.10
2022-09-22T00:41:42.107Z,16.10
2022-09-22T00:44:40.236Z,16.10
2022-09-22T00:47:36.548Z,16.20
2022-09-22T00:50:28.788Z,16.10
2022-09-22T00:53:19.519Z,16.20
2022-09-22T00:56:12.610Z,16.10
2022-09-22T00:59:06.972Z,16.10
2022-09-22T01:01:57.509Z,16.00
2022-09-22T01:04:47.157Z,15.80
2022-09-22T01:07:38.523Z,15.50
2022-09-22T01:10:28.455Z,15.40
2022-09-22T01:13:27.663Z,14.80
2022-09-22T01:16:32.139Z,14.70
2022-09-22T01:19:57.315Z,14.80
2022-09-22T01:23:18.650Z,14.90
2022-09-22T01:26:38.211Z,15.10
2022-09-22T01:30:10.809Z,15.00
2022-09-22T01:33:22.610Z,14.50
2022-09-22T01:36:22.774Z,14.50
2022-09-22T01:39:18.458Z,14.70
2022-09-22T01:42:10.931Z,15.00
2022-09-22T01:45:04.720Z,15.20
2022-09-22T01:47:59.142Z,15.40
2022-09-22T01:50:55.053Z,15.50
2022-09-22T01:53:48.121Z,15.50
2022-09-22T01:56:40.198Z,15.60
2022-09-22T01:59:32.915Z,15.60
2022-09-22T02:02:27.033Z,15.60
2022-09-22T02:05:23.509Z,15.70
2022-09-22T02:08:19.560Z,15.70
2022-09-22T02:11:14.534Z,15.40
2022-09-22T02:14:04.808Z,15.30
2022-09-22T02:16:54.757Z,15.40
2022-09-22T02:19:44.351Z,15.40
2022-09-22T02:22:35.003Z,15.50
2022-09-22T02:25:25.017Z,15.60
2022-09-22T02:28:17.353Z,15.60
2022-09-22T02:31:20.007Z,15.60
2022-09-22T02:34:10.551Z,15.60
2022-09-22T02:37:05.190Z,15.70
2022-09-22T02:40:05.967Z,15.70
2022-09-22T02:43:02.483Z,15.70
2022-09-22T02:45:57.480Z,15.70
2022-09-22T02:48:49.213Z,15.70
2022-09-22T02:51:38.735Z,15.70
2022-09-22T02:54:28.142Z,15.70
2022-09-22T02:57:18.491Z,15.70
2022-09-22T03:00:08.537Z,15.70
2022-09-22T03:02:57.748Z,15.60
2022-09-22T03:05:46.858Z,15.50
2022-09-22T03:08:36.552Z,15.40
2022-09-22T03:11:27.245Z,15.40
2022-09-22T03:14:17.450Z,15.40
2022-09-22T03:17:06.809Z,15.30
2022-09-22T03:19:56.035Z,15.30
2022-09-22T03:22:45.213Z,15.30
2022-09-22T03:25:34.211Z,15.20
2022-09-22T03:28:23.279Z,14.90
2022-09-22T03:31:14.274Z,14.20
2022-09-22T03:34:03.595Z,13.90
2022-09-22T03:36:52.295Z,13.50
2022-09-22T03:39:41.617Z,13.70
2022-09-22T03:42:30.879Z,13.80
2022-09-22T03:45:20.730Z,13.80
2022-09-22T03:48:11.605Z,14.20
2022-09-22T03:51:00.665Z,14.10
2022-09-22T03:53:49.535Z,14.20
2022-09-22T03:56:38.426Z,14.30
2022-09-22T03:59:27.958Z,14.00
2022-09-22T04:02:17.008Z,13.60
2022-09-22T04:05:08.716Z,13.50
2022-09-22T04:07:58.264Z,13.40
2022-09-22T04:10:47.676Z,13.40
2022-09-22T04:13:37.303Z,13.30
2022-09-22T04:16:25.888Z,13.30
2022-09-22T04:19:15.643Z,13.10
2022-09-22T04:22:06.666Z,13.20
2022-09-22T04:24:55.602Z,13.30
2022-09-22T04:27:44.056Z,13.00
2022-09-22T04:30:33.903Z,12.80
2022-09-22T04:33:23.459Z,12.70
2022-09-22T04:36:13.075Z,12.30
2022-09-22T04:39:04.222Z,12.10
2022-09-22T04:41:53.520Z,12.20
2022-09-22T04:44:43.259Z,12.10
2022-09-22T04:47:32.190Z,12.50
2022-09-22T04:50:23.526Z,12.50
2022-09-22T04:53:12.767Z,12.80
2022-09-22T04:56:03.562Z,12.90
2022-09-22T04:58:52.988Z,13.00
2022-09-22T05:01:42.040Z,13.30
2022-09-22T05:04:31.865Z,13.60
2022-09-22T05:07:20.793Z,13.70
2022-09-22T05:10:11.210Z,13.80
2022-09-22T05:13:01.825Z,13.80
2022-09-22T05:15:51.009Z,13.90
2022-09-22T05:18:40.707Z,14.10
2022-09-22T05:21:30.094Z,14.10
2022-09-22T05:24:19.192Z,13.60
2022-09-22T05:27:08.083Z,13.60
2022-09-22T05:29:58.703Z,13.80
2022-09-22T05:32:49.566Z,13.90
2022-09-22T05:35:38.303Z,13.90
2022-09-22T05:38:27.887Z,13.50
2022-09-22T07:17:22.542Z,14.80
2022-09-22T07:20:11.280Z,14.90
2022-09-22T07:23:01.106Z,15.10
2022-09-22T07:25:56.624Z,15.40
2022-09-22T07:28:47.194Z,15.60
2022-09-22T07:31:36.921Z,15.70
2022-09-22T07:34:27.728Z,15.90
2022-09-22T07:37:17.043Z,16.00
2022-09-22T07:40:07.710Z,16.20
2022-09-22T07:42:57.345Z,16.40
2022-09-22T07:45:57.324Z,16.60
2022-09-22T07:48:48.258Z,16.60
2022-09-22T07:51:38.884Z,16.60
2022-09-22T07:54:29.363Z,16.60
2022-09-22T07:57:18.420Z,16.50
2022-09-22T08:00:08.838Z,16.60
2022-09-22T08:05:49.963Z,16.90
2022-09-22T08:08:42.751Z,16.80
2022-09-22T08:11:32.336Z,17.00
2022-09-22T08:14:24.395Z,17.10
2022-09-22T08:17:13.133Z,17.20
2022-09-22T08:20:02.705Z,17.40
2022-09-22T08:22:53.613Z,17.40
2022-09-22T08:25:44.616Z,17.60
2022-09-22T08:28:33.538Z,17.80
2022-09-22T08:31:23.416Z,17.90
2022-09-22T08:34:15.170Z,18.00
2022-09-22T08:37:04.543Z,18.10
2022-09-22T08:39:53.805Z,18.10
2022-09-22T08:42:45.710Z,18.20
2022-09-22T08:45:38.388Z,18.30
2022-09-22T08:48:46.289Z,18.40
2022-09-22T08:51:53.914Z,18.50
2022-09-22T08:54:43.430Z,18.60
2022-09-22T08:57:45.379Z,18.70
2022-09-22T09:00:42.856Z,18.80
2022-09-22T09:03:43.068Z,18.90
2022-09-22T09:06:39.405Z,18.90
2022-09-22T09:09:38.397Z,18.90
2022-09-22T09:12:41.411Z,19.00
2022-09-22T09:15:42.630Z,19.00
2022-09-22T09:18:34.952Z,19.10
2022-09-22T09:21:25.958Z,19.20
2022-09-22T09:27:34.567Z,19.30
2022-09-22T09:30:24.225Z,19.40
2022-09-22T09:33:26.854Z,19.50
2022-09-22T09:36:20.772Z,19.50
2022-09-22T09:39:15.257Z,19.50
2022-09-22T09:42:14.862Z,19.60
2022-09-22T09:45:06.058Z,19.70
2022-09-22T09:48:13.570Z,19.80
2022-09-22T09:51:05.932Z,19.80
2022-09-22T09:53:57.080Z,19.90
2022-09-22T09:57:04.896Z,19.90
2022-09-22T10:00:34.746Z,20.00
2022-09-22T10:03:29.995Z,20.10
2022-09-22T10:30:23.883Z,21.40
2022-09-22T10:33:16.223Z,21.50
2022-09-22T10:36:10.999Z,21.60
2022-09-22T10:39:04.409Z,21.60
2022-09-22T10:44:48.233Z,21.40
2022-09-22T10:47:56.106Z,21.40
2022-09-22T10:50:57.190Z,21.50
2022-09-22T10:54:02.006Z,21.70
2022-09-22T10:56:54.828Z,22.00
2022-09-22T11:00:04.090Z,22.30
2022-09-22T11:03:22.123Z,22.60
2022-09-22T11:06:50.999Z,22.80
2022-09-22T11:10:04.076Z,23.00
2022-09-22T11:13:01.820Z,23.00
2022-09-22T11:16:28.730Z,22.70
2022-09-22T11:19:49.208Z,22.90
2022-09-22T11:23:27.640Z,23.20
2022-09-22T11:26:31.712Z,23.50
2022-09-22T11:30:11.283Z,23.80
2022-09-22T11:33:37.187Z,23.90
2022-09-22T11:36:40.890Z,24.10
2022-09-22T11:39:45.062Z,24.40
2022-09-22T11:42:45.190Z,24.60
2022-09-22T11:45:48.461Z,24.70
2022-09-22T11:48:52.307Z,24.80
2022-09-22T11:52:03.345Z,25.00
2022-09-22T11:55:16.898Z,25.00
2022-09-22T11:58:11.727Z,24.90
2022-09-22T12:04:09.441Z,25.10
2022-09-22T12:07:00.837Z,24.80
2022-09-22T12:09:56.309Z,24.90
2022-09-22T12:15:43.571Z,25.30
2022-09-22T12:18:41.702Z,25.40
2022-09-22T12:21:44.162Z,25.50
2022-09-22T12:24:34.822Z,25.50
2022-09-22T12:27:26.426Z,25.60
2022-09-22T12:30:23.800Z,25.80
2022-09-22T12:33:17.454Z,25.90
2022-09-22T12:39:09.875Z,26.10
2022-09-22T12:42:00.222Z,26.20
2022-09-22T12:47:42.476Z,26.40
2022-09-22T12:50:39.564Z,26.50
2022-09-22T12:53:31.023Z,26.50
2022-09-22T12:56:46.727Z,26.30
2022-09-22T12:59:59.829Z,26.30
2022-09-22T13:02:49.878Z,26.30
2022-09-22T13:05:46.975Z,26.40
2022-09-22T13:09:08.357Z,26.40
2022-09-22T13:12:30.710Z,26.50
2022-09-22T15:30:16.624Z,24.40
2022-09-22T15:33:06.890Z,24.30
2022-09-22T15:38:47.023Z,24.00
2022-09-22T15:41:36.903Z,24.00
2022-09-22T15:44:27.580Z,23.80
2022-09-22T15:47:18.165Z,23.70
2022-09-22T15:50:07.983Z,23.50
2022-09-22T15:55:47.956Z,23.30
2022-09-22T15:58:39.460Z,23.20
2022-09-22T16:01:29.788Z,23.10
2022-09-22T16:04:20.427Z,23.00
2022-09-22T16:07:12.681Z,22.90
2022-09-22T16:10:03.947Z,22.80
2022-09-22T16:12:53.085Z,22.70
2022-09-22T16:15:42.574Z,22.50
2022-09-22T16:18:32.932Z,22.40
2022-09-22T16:21:26.173Z,22.30
2022-09-22T16:24:16.023Z,22.20
2022-09-22T16:27:07.348Z,22.10
2022-09-22T17:32:36.322Z,20.80
2022-09-22T17:35:25.590Z,20.80
2022-09-22T17:38:14.648Z,20.60
2022-09-22T17:41:09.313Z,20.60
2022-09-22T17:44:01.179Z,20.60
2022-09-22T17:47:10.358Z,20.50
2022-09-22T17:50:16.557Z,20.50
2022-09-22T17:53:22.854Z,20.40
2022-09-22T17:56:13.187Z,20.40
2022-09-22T17:59:02.232Z,20.30
2022-09-22T18:01:53.690Z,20.20
2022-09-22T18:04:43.354Z,20.20
2022-09-22T18:07:33.376Z,20.20
2022-09-22T18:10:22.778Z,20.20
2022-09-22T18:13:11.815Z,20.20
2022-09-22T18:16:19.702Z,20.10
2022-09-22T18:19:10.646Z,20.00
2022-09-22T18:22:02.011Z,19.90
2022-09-22T18:24:54.817Z,19.90
2022-09-22T18:27:44.479Z,19.80
2022-09-22T18:30:34.126Z,19.80
2022-09-22T18:33:23.185Z,19.80
2022-09-22T18:36:13.550Z,19.80
2022-09-22T18:39:02.542Z,19.70
2022-09-22T18:41:55.559Z,19.70
2022-09-22T18:44:45.107Z,19.70
2022-09-22T18:47:41.327Z,19.70
2022-09-22T18:50:31.225Z,19.60
2022-09-22T18:53:23.161Z,19.70
2022-09-22T18:56:12.386Z,19.70
2022-09-22T18:59:01.610Z,19.80
2022-09-22T19:01:51.346Z,19.70
2022-09-22T19:04:41.160Z,19.80
2022-09-22T19:07:42.655Z,19.80
2022-09-22T19:10:34.430Z,19.70
2022-09-22T19:13:24.019Z,19.70
2022-09-22T19:16:15.093Z,19.50
2022-09-22T19:19:04.359Z,19.40
2022-09-22T19:21:53.373Z,19.10
2022-09-22T19:24:44.755Z,18.70
2022-09-22T19:27:35.697Z,18.70
2022-09-22T19:30:28.589Z,18.50
2022-09-22T19:33:20.622Z,18.50
2022-09-22T19:36:10.600Z,18.40
2022-09-22T19:38:59.784Z,18.40
2022-09-22T19:41:49.496Z,18.50
2022-09-22T19:44:40.197Z,18.20
2022-09-22T19:47:29.467Z,18.40
2022-09-22T19:50:19.450Z,18.40
2022-09-22T19:53:09.040Z,18.30
2022-09-22T19:55:58.268Z,18.30
2022-09-22T19:58:47.437Z,18.40
2022-09-22T20:01:40.301Z,18.30
2022-09-22T20:04:29.911Z,18.20
2022-09-22T20:07:18.697Z,18.30
2022-09-22T20:10:08.582Z,18.10
2022-09-22T20:12:58.042Z,17.80
2022-09-22T20:15:47.167Z,17.70
2022-09-22T20:18:41.281Z,17.90
2022-09-22T20:21:33.618Z,18.00
2022-09-22T20:24:24.513Z,17.90
2022-09-22T20:27:13.320Z,17.80
2022-09-22T20:30:02.769Z,17.80
2022-09-22T20:32:52.158Z,17.40
2022-09-22T20:35:43.146Z,17.50
2022-09-22T20:38:33.298Z,17.70
2022-09-22T20:41:24.356Z,17.70
2022-09-22T20:44:15.452Z,17.90
2022-09-22T20:47:06.540Z,17.90
2022-09-22T20:49:56.093Z,17.70
2022-09-22T20:52:47.532Z,17.60
2022-09-22T20:55:36.739Z,17.70
2022-09-22T20:58:26.542Z,17.80
2022-09-22T21:01:18.106Z,17.80
2022-09-22T21:04:08.005Z,17.90
2022-09-22T21:06:56.998Z,17.90
2022-09-22T21:10:01.094Z,17.90
2022-09-22T21:12:55.026Z,17.80
2022-09-22T21:15:44.611Z,17.70
2022-09-22T21:18:34.943Z,17.60
2022-09-22T21:21:23.950Z,17.50
2022-09-22T21:24:13.411Z,17.40
2022-09-22T21:27:04.023Z,17.30
2022-09-22T22:58:19.016Z,16.70
2022-09-22T23:01:11.275Z,16.60
2022-09-22T23:04:05.183Z,16.60
2022-09-22T23:06:54.194Z,16.60
2022-09-22T23:09:42.688Z,16.60
2022-09-22T23:12:34.732Z,16.40
2022-09-22T23:15:24.943Z,16.40
2022-09-22T23:18:20.106Z,16.40
2022-09-22T23:21:11.898Z,16.40
2022-09-22T23:24:01.941Z,16.50
2022-09-22T23:26:51.859Z,16.30
2022-09-22T23:29:40.899Z,16.30
2022-09-22T23:32:29.694Z,16.30
2022-09-22T23:35:20.263Z,16.10
2022-09-22T23:38:14.126Z,16.10
2022-09-22T23:41:06.736Z,15.90
2022-09-22T23:43:55.921Z,15.90
2022-09-22T23:46:45.027Z,15.90
2022-09-22T23:49:34.467Z,16.00
2022-09-22T23:52:25.418Z,15.90
2022-09-22T23:55:14.492Z,15.80
2022-09-22T23:58:03.483Z,15.70
